sensor_id;sensor_type;location;lat;lon;timestamp;pressure;altitude;pressure_sealevel;temperature;humidity
72359;BME280;60317;48.880;-0.862;2024-03-23T13:41:08;100437.97;;;20.98;40.40
72359;BME280;60317;48.880;-0.862;2024-03-23T13:43:33;100420.41;;;20.94;40.97
72359;BME280;60317;48.880;-0.862;2024-03-23T13:48:35;100404.84;;;20.88;41.20
72359;BME280;60317;48.880;-0.862;2024-03-23T13:51:02;100397.50;;;20.90;41.02
72359;BME280;60317;48.880;-0.862;2024-03-23T13:53:28;100402.75;;;20.92;40.59
72359;BME280;60317;48.880;-0.862;2024-03-23T13:55:54;100390.16;;;20.92;40.82
72359;BME280;60317;48.880;-0.862;2024-03-23T13:58:21;100384.91;;;20.91;41.35
72359;BME280;60317;48.880;-0.862;2024-03-23T14:00:47;100385.66;;;20.93;41.50
72359;BME280;60317;48.880;-0.862;2024-03-23T14:03:13;100378.69;;;20.90;41.39
72359;BME280;60317;48.880;-0.862;2024-03-23T14:05:40;100376.72;;;20.83;41.65
72359;BME280;60317;48.880;-0.862;2024-03-23T14:11:18;100376.13;;;20.79;41.45
72359;BME280;60317;48.880;-0.862;2024-03-23T14:13:45;100376.84;;;20.81;41.30
72359;BME280;60317;48.880;-0.862;2024-03-23T14:16:11;100375.03;;;20.91;41.43
72359;BME280;60317;48.880;-0.862;2024-03-23T14:18:37;100370.38;;;20.93;41.27
72359;BME280;60317;48.880;-0.862;2024-03-23T14:21:02;100395.66;;;20.91;41.17
72359;BME280;60317;48.880;-0.862;2024-03-23T14:23:30;100401.03;;;20.91;41.35
72359;BME280;60317;48.880;-0.862;2024-03-23T14:25:56;100419.28;;;20.87;41.30
72359;BME280;60317;48.880;-0.862;2024-03-23T14:28:22;100428.31;;;20.86;41.52
72359;BME280;60317;48.880;-0.862;2024-03-23T14:30:49;100427.47;;;20.86;41.80
72359;BME280;60317;48.880;-0.862;2024-03-23T14:33:15;100412.47;;;20.83;41.76
72359;BME280;60317;48.880;-0.862;2024-03-23T14:35:41;100411.75;;;20.81;42.54
72359;BME280;60317;48.880;-0.862;2024-03-23T14:38:06;100394.09;;;20.88;42.45
72359;BME280;60317;48.880;-0.862;2024-03-23T14:40:32;100393.25;;;20.88;43.28
72359;BME280;60317;48.880;-0.862;2024-03-23T14:42:58;100383.06;;;20.91;43.32
72359;BME280;60317;48.880;-0.862;2024-03-23T14:45:23;100368.41;;;20.95;43.64
72359;BME280;60317;48.880;-0.862;2024-03-23T14:47:50;100358.91;;;20.91;43.73
72359;BME280;60317;48.880;-0.862;2024-03-23T14:50:16;100355.94;;;20.94;43.73
72359;BME280;60317;48.880;-0.862;2024-03-23T14:52:43;100355.66;;;20.97;43.70
72359;BME280;60317;48.880;-0.862;2024-03-23T14:55:09;100350.16;;;20.99;43.90
72359;BME280;60317;48.880;-0.862;2024-03-23T14:57:35;100348.16;;;21.01;44.03
72359;BME280;60317;48.880;-0.862;2024-03-23T15:00:00;100341.81;;;21.02;44.04
72359;BME280;60317;48.880;-0.862;2024-03-23T15:02:26;100343.78;;;21.00;44.38
72359;BME280;60317;48.880;-0.862;2024-03-23T15:04:53;100334.63;;;21.03;44.22
72359;BME280;60317;48.880;-0.862;2024-03-23T15:07:18;100355.13;;;21.04;44.20
72359;BME280;60317;48.880;-0.862;2024-03-23T15:09:44;100352.56;;;21.02;44.37
72359;BME280;60317;48.880;-0.862;2024-03-23T15:12:10;100323.88;;;21.03;44.09
72359;BME280;60317;48.880;-0.862;2024-03-23T15:14:35;100325.13;;;20.98;44.30
72359;BME280;60317;48.880;-0.862;2024-03-23T15:17:01;100302.78;;;20.98;44.56
72359;BME280;60317;48.880;-0.862;2024-03-23T15:19:27;100321.56;;;20.98;44.87
72359;BME280;60317;48.880;-0.862;2024-03-23T15:21:53;100318.78;;;21.00;44.86
72359;BME280;60317;48.880;-0.862;2024-03-23T15:24:19;100315.25;;;20.99;44.96
72359;BME280;60317;48.880;-0.862;2024-03-23T15:26:45;100325.13;;;20.98;44.47
72359;BME280;60317;48.880;-0.862;2024-03-23T15:29:10;100327.81;;;20.98;44.50
72359;BME280;60317;48.880;-0.862;2024-03-23T15:31:36;100308.88;;;21.00;44.61
72359;BME280;60317;48.880;-0.862;2024-03-23T15:34:02;100299.69;;;21.03;44.74
72359;BME280;60317;48.880;-0.862;2024-03-23T15:36:27;100295.56;;;21.08;44.68
72359;BME280;60317;48.880;-0.862;2024-03-23T15:38:54;100293.88;;;21.07;44.98
72359;BME280;60317;48.880;-0.862;2024-03-23T15:41:20;100295.13;;;21.13;44.85
72359;BME280;60317;48.880;-0.862;2024-03-23T15:43:45;100290.91;;;21.10;44.98
72359;BME280;60317;48.880;-0.862;2024-03-23T15:46:11;100285.09;;;21.05;45.00
72359;BME280;60317;48.880;-0.862;2024-03-23T15:48:37;100271.66;;;21.05;44.64
72359;BME280;60317;48.880;-0.862;2024-03-23T15:51:03;100263.75;;;21.04;44.99
72359;BME280;60317;48.880;-0.862;2024-03-23T15:53:29;100242.94;;;21.06;44.98
72359;BME280;60317;48.880;-0.862;2024-03-23T15:55:58;100224.00;;;21.07;45.05
72359;BME280;60317;48.880;-0.862;2024-03-23T15:58:24;100257.38;;;21.05;45.10
72359;BME280;60317;48.880;-0.862;2024-03-23T16:00:54;100274.50;;;21.04;45.36
72359;BME280;60317;48.880;-0.862;2024-03-23T16:03:20;100271.94;;;21.02;45.30
72359;BME280;60317;48.880;-0.862;2024-03-23T16:05:50;100263.75;;;21.04;44.91
72359;BME280;60317;48.880;-0.862;2024-03-23T16:08:15;100273.78;;;21.02;44.92
72359;BME280;60317;48.880;-0.862;2024-03-23T16:10:41;100265.72;;;21.02;44.58
72359;BME280;60317;48.880;-0.862;2024-03-23T16:13:08;100250.03;;;20.97;44.43
